createdAt,value
2023-05-04T00:00:29.034Z,2.40
2023-05-04T00:02:57.221Z,2.40
2023-05-04T00:05:25.190Z,2.60
2023-05-04T00:07:53.119Z,2.40
2023-05-04T00:10:21.406Z,2.50
2023-05-04T00:12:49.349Z,2.60
2023-05-04T00:15:17.626Z,2.80
2023-05-04T00:17:47.034Z,2.80
2023-05-04T00:20:15.057Z,2.80
2023-05-04T00:22:43.008Z,2.60
2023-05-04T00:25:11.630Z,2.50
2023-05-04T00:27:39.619Z,2.60
2023-05-04T00:30:08.854Z,2.70
2023-05-04T00:32:36.891Z,2.60
2023-05-04T00:35:07.249Z,2.40
2023-05-04T00:37:35.224Z,2.40
2023-05-04T00:40:03.707Z,2.30
2023-05-04T00:42:31.844Z,2.30
2023-05-04T00:44:59.819Z,2.10
2023-05-04T00:47:29.787Z,2.20
2023-05-04T00:49:57.907Z,2.10
2023-05-04T00:52:27.816Z,2.00
2023-05-04T00:54:56.045Z,2.00
2023-05-04T00:57:24.314Z,2.20
2023-05-04T00:59:53.357Z,2.30
2023-05-04T01:02:21.682Z,2.40
2023-05-04T01:04:49.974Z,2.40
2023-05-04T01:07:33.537Z,2.40
2023-05-04T01:10:05.909Z,2.40
2023-05-04T01:12:39.874Z,2.30
2023-05-04T01:15:10.550Z,2.10
2023-05-04T01:17:38.689Z,2.20
2023-05-04T01:20:09.404Z,2.30
2023-05-04T01:22:39.694Z,2.40
2023-05-04T01:25:09.323Z,2.40
2023-05-04T01:27:46.718Z,2.00
2023-05-04T01:30:19.497Z,1.70
2023-05-04T01:32:48.702Z,1.90
2023-05-04T01:35:16.971Z,1.90
2023-05-04T01:37:46.350Z,1.90
2023-05-04T01:40:14.296Z,2.00
2023-05-04T01:42:42.298Z,2.00
2023-05-04T01:45:11.368Z,2.00
2023-05-04T01:47:39.523Z,2.00
2023-05-04T01:50:08.133Z,1.80
2023-05-04T01:52:36.147Z,1.60
2023-05-04T01:55:05.881Z,1.40
2023-05-04T01:57:33.867Z,1.20
2023-05-04T02:00:02.040Z,1.20
2023-05-04T02:02:30.859Z,1.20
2023-05-04T02:04:58.854Z,1.20
2023-05-04T02:07:26.862Z,1.30
2023-05-04T02:09:54.823Z,1.40
2023-05-04T02:12:24.140Z,1.50
2023-05-04T02:14:52.141Z,1.50
2023-05-04T02:17:20.344Z,1.30
2023-05-04T02:19:48.366Z,1.40
2023-05-04T02:22:16.628Z,1.50
2023-05-04T02:24:44.584Z,1.50
2023-05-04T02:27:12.675Z,1.60
2023-05-04T02:29:42.008Z,1.60
2023-05-04T02:32:10.019Z,1.60
2023-05-04T02:34:38.121Z,1.70
2023-05-04T02:37:07.548Z,1.60
2023-05-04T02:39:35.703Z,1.50
2023-05-04T02:42:04.016Z,1.50
2023-05-04T02:44:31.990Z,1.20
2023-05-04T02:47:02.065Z,1.00
2023-05-04T02:49:30.025Z,0.80
2023-05-04T02:51:58.085Z,0.70
2023-05-04T02:54:26.031Z,0.70
2023-05-04T02:56:53.980Z,0.70
2023-05-04T02:59:21.914Z,0.70
2023-05-04T03:01:49.931Z,0.70
2023-05-04T03:04:19.253Z,0.50
2023-05-04T03:06:47.418Z,0.60
2023-05-04T03:09:15.404Z,0.60
2023-05-04T03:11:43.400Z,0.30
2023-05-04T03:14:11.362Z,0.40
2023-05-04T03:16:39.393Z,0.50
2023-05-04T03:19:07.469Z,0.50
2023-05-04T03:21:36.835Z,0.30
2023-05-04T03:24:05.393Z,0.30
2023-05-04T03:26:33.332Z,0.30
2023-05-04T03:29:01.338Z,0.10
2023-05-04T03:31:29.332Z,0.10
2023-05-04T03:33:57.340Z,0.20
2023-05-04T03:36:25.319Z,0.10
2023-05-04T03:38:54.650Z,0.10
2023-05-04T03:41:22.596Z,0.10
2023-05-04T03:43:50.578Z,0.20
2023-05-04T03:46:18.543Z,0.30
2023-05-04T03:48:46.520Z,0.30
2023-05-04T03:51:14.564Z,0.10
2023-05-04T03:53:44.638Z,0.00
2023-05-04T03:56:14.335Z,-0.10
2023-05-04T03:58:42.306Z,-0.20
2023-05-04T04:01:10.577Z,-0.20
2023-05-04T04:03:39.080Z,-0.20
2023-05-04T04:06:08.545Z,-0.10
2023-05-04T04:08:36.644Z,-0.20
2023-05-04T04:11:04.720Z,0.00
2023-05-04T04:13:34.063Z,0.20
2023-05-04T04:16:02.207Z,0.30
2023-05-04T04:18:30.189Z,0.20
2023-05-04T04:20:58.248Z,0.30
2023-05-04T04:23:26.372Z,0.40
2023-05-04T04:25:54.962Z,0.50
2023-05-04T04:28:22.926Z,0.50
2023-05-04T04:30:53.033Z,0.50
2023-05-04T04:33:21.307Z,0.40
2023-05-04T04:35:49.525Z,0.50
2023-05-04T04:38:17.449Z,0.50
2023-05-04T04:40:45.447Z,0.40
2023-05-04T04:43:14.204Z,0.40
2023-05-04T04:45:42.175Z,0.60
2023-05-04T04:48:12.828Z,0.50
2023-05-04T04:50:41.112Z,0.60
2023-05-04T04:53:09.748Z,0.50
2023-05-04T04:55:37.748Z,0.70
2023-05-04T04:58:05.856Z,0.90
2023-05-04T05:00:33.852Z,1.10
2023-05-04T05:03:01.798Z,1.20
2023-05-04T05:05:31.860Z,1.40
2023-05-04T05:08:00.039Z,1.30
2023-05-04T05:10:28.026Z,1.50
2023-05-04T05:12:56.318Z,1.60
2023-05-04T05:15:24.429Z,1.70
2023-05-04T05:17:52.472Z,1.80
2023-05-04T05:20:21.335Z,2.00
2023-05-04T05:22:51.579Z,2.10
2023-05-04T05:25:19.958Z,2.20
2023-05-04T05:27:47.974Z,2.40
2023-05-04T05:30:16.292Z,2.60
2023-05-04T05:32:44.670Z,2.70
2023-05-04T05:35:13.566Z,2.90
2023-05-04T05:37:41.500Z,3.30
2023-05-04T05:40:12.286Z,3.70
2023-05-04T05:42:41.473Z,3.80
2023-05-04T05:45:10.861Z,3.90
2023-05-04T05:47:39.153Z,4.20
2023-05-04T05:50:08.749Z,4.30
2023-05-04T05:52:36.849Z,4.30
2023-05-04T05:55:05.137Z,4.70
2023-05-04T05:57:34.507Z,4.90
2023-05-04T06:00:02.772Z,5.00
2023-05-04T06:02:31.012Z,5.10
2023-05-04T06:04:59.108Z,5.40
2023-05-04T06:07:27.212Z,5.50
2023-05-04T06:09:55.214Z,6.50
2023-05-04T06:12:23.310Z,7.10
2023-05-04T06:14:52.805Z,7.10
2023-05-04T06:17:21.691Z,7.70
2023-05-04T06:19:51.198Z,8.20
2023-05-04T06:22:19.204Z,8.90
2023-05-04T06:24:47.551Z,9.80
2023-05-04T06:27:15.555Z,9.60
2023-05-04T06:29:43.483Z,10.40
2023-05-04T06:32:13.044Z,10.90
2023-05-04T06:34:41.134Z,10.90
2023-05-04T06:37:09.129Z,10.90
2023-05-04T06:39:37.114Z,11.60
2023-05-04T06:42:05.249Z,11.90
2023-05-04T06:44:37.716Z,12.40
2023-05-04T06:47:07.393Z,13.00
2023-05-04T06:49:37.017Z,12.90
2023-05-04T06:52:05.492Z,13.10
2023-05-04T06:54:33.497Z,13.70
2023-05-04T06:57:04.388Z,13.50
2023-05-04T06:59:32.398Z,13.50
2023-05-04T07:02:00.499Z,13.20
2023-05-04T07:04:28.428Z,14.20
2023-05-04T07:06:57.836Z,14.30
2023-05-04T07:09:26.068Z,14.50
2023-05-04T07:11:54.355Z,14.90
2023-05-04T07:14:22.408Z,14.40
2023-05-04T07:16:50.404Z,14.40
2023-05-04T07:19:18.498Z,14.30
2023-05-04T07:21:47.287Z,15.00
2023-05-04T07:24:16.624Z,15.30
2023-05-04T07:26:44.692Z,14.90
2023-05-04T07:29:12.633Z,14.50
2023-05-04T07:31:40.616Z,14.50
2023-05-04T07:34:08.631Z,14.80
2023-05-04T07:36:36.661Z,15.20
2023-05-04T07:39:04.755Z,15.20
2023-05-04T07:41:34.053Z,15.10
2023-05-04T07:44:05.493Z,15.10
2023-05-04T07:46:33.762Z,15.10
2023-05-04T07:49:02.960Z,15.30
2023-05-04T07:51:30.978Z,15.10
2023-05-04T07:53:58.939Z,15.00
2023-05-04T07:56:26.863Z,15.10
2023-05-04T07:58:56.176Z,15.10
2023-05-04T08:01:24.646Z,15.30
2023-05-04T08:03:52.645Z,14.90
2023-05-04T08:06:21.894Z,14.60
2023-05-04T08:08:52.696Z,14.30
2023-05-04T08:11:21.332Z,13.70
2023-05-04T08:13:50.168Z,13.50
2023-05-04T08:16:19.501Z,13.60
2023-05-04T08:18:47.462Z,13.90
2023-05-04T08:21:15.587Z,14.30
2023-05-04T08:23:43.606Z,14.50
2023-05-04T08:26:11.611Z,14.00
2023-05-04T08:28:41.004Z,13.80
2023-05-04T08:31:09.088Z,13.50
2023-05-04T08:33:38.443Z,13.80
2023-05-04T08:36:08.031Z,14.10
2023-05-04T08:38:36.382Z,13.80
2023-05-04T08:41:04.752Z,13.70
2023-05-04T08:43:35.409Z,14.30
2023-05-04T08:46:04.758Z,14.70
2023-05-04T08:48:33.681Z,14.80
2023-05-04T08:51:04.252Z,14.50
2023-05-04T08:53:33.654Z,14.60
2023-05-04T08:56:04.458Z,14.60
2023-05-04T08:58:37.698Z,14.90
2023-05-04T09:01:07.768Z,14.90
2023-05-04T09:03:36.118Z,15.60
2023-05-04T09:06:07.898Z,15.90
2023-05-04T09:08:36.215Z,15.50
2023-05-04T09:11:04.349Z,15.00
2023-05-04T09:13:32.561Z,14.80
2023-05-04T09:16:00.600Z,14.90
2023-05-04T09:18:38.154Z,14.70
2023-05-04T09:21:08.046Z,14.70
2023-05-04T09:23:47.198Z,15.20
2023-05-04T09:26:15.597Z,15.10
2023-05-04T09:28:43.781Z,15.00
2023-05-04T09:31:12.264Z,14.90
2023-05-04T09:33:40.268Z,15.30
2023-05-04T09:36:16.988Z,15.30
2023-05-04T09:38:45.254Z,15.40
2023-05-04T09:41:13.285Z,15.70
2023-05-04T09:43:42.068Z,15.60
2023-05-04T09:46:18.066Z,15.70
2023-05-04T09:48:53.492Z,15.80
2023-05-04T09:51:25.573Z,15.80
2023-05-04T09:53:54.355Z,15.90
2023-05-04T09:56:32.380Z,15.60
2023-05-04T09:59:00.529Z,15.50
2023-05-04T10:01:30.022Z,15.70
2023-05-04T10:03:58.454Z,16.00
2023-05-04T10:06:30.403Z,15.70
2023-05-04T10:09:00.534Z,16.20
2023-05-04T10:11:29.639Z,16.30
2023-05-04T10:13:58.201Z,16.30
2023-05-04T10:16:37.664Z,16.20
2023-05-04T10:19:20.718Z,15.90
2023-05-04T10:22:07.912Z,15.80
2023-05-04T10:24:59.696Z,16.10
2023-05-04T10:27:44.913Z,16.10
2023-05-04T10:30:15.864Z,16.50
2023-05-04T10:32:43.905Z,16.50
2023-05-04T10:35:12.374Z,16.60
2023-05-04T10:37:54.294Z,16.60
2023-05-04T10:40:36.703Z,16.50
2023-05-04T10:43:05.172Z,16.70
2023-05-04T10:45:37.678Z,16.80
2023-05-04T10:48:06.453Z,17.10
2023-05-04T10:50:44.111Z,17.00
2023-05-04T10:53:14.296Z,16.70
2023-05-04T10:55:43.056Z,16.20
2023-05-04T10:58:14.677Z,15.70
2023-05-04T11:00:44.686Z,16.10
2023-05-04T11:03:14.010Z,16.50
2023-05-04T11:05:43.570Z,16.80
2023-05-04T11:08:20.682Z,17.10
2023-05-04T11:10:49.434Z,17.20
2023-05-04T11:13:17.624Z,17.50
2023-05-04T11:15:46.854Z,17.50
2023-05-04T11:18:15.441Z,17.60
2023-05-04T11:20:43.620Z,17.20
2023-05-04T11:23:17.282Z,16.70
2023-05-04T11:25:46.626Z,16.70
2023-05-04T11:28:14.912Z,16.50
2023-05-04T11:30:44.489Z,16.80
2023-05-04T11:33:13.531Z,16.60
2023-05-04T11:35:42.453Z,16.80
2023-05-04T11:38:13.193Z,17.00
2023-05-04T11:40:48.322Z,16.90
2023-05-04T11:43:18.657Z,16.40
2023-05-04T11:45:49.554Z,16.30
2023-05-04T11:48:18.713Z,16.10
2023-05-04T11:50:48.071Z,15.80
2023-05-04T11:53:21.409Z,15.90
2023-05-04T11:55:49.513Z,16.30
2023-05-04T11:58:25.722Z,16.40
2023-05-04T12:00:57.494Z,16.80
2023-05-04T12:03:39.793Z,16.70
2023-05-04T12:06:15.631Z,17.30
2023-05-04T12:08:43.844Z,17.90
2023-05-04T12:11:16.242Z,18.10
2023-05-04T12:13:47.341Z,18.00
2023-05-04T12:16:16.633Z,18.20
2023-05-04T12:18:45.376Z,17.90
2023-05-04T12:21:14.698Z,18.20
2023-05-04T12:23:43.477Z,17.80
2023-05-04T12:26:12.574Z,17.90
2023-05-04T12:28:42.246Z,18.10
2023-05-04T12:31:11.690Z,18.00
2023-05-04T12:33:39.701Z,17.90
2023-05-04T12:36:08.578Z,17.80
2023-05-04T12:38:37.463Z,17.60
2023-05-04T12:41:05.967Z,17.80
2023-05-04T12:43:33.968Z,18.20
2023-05-04T12:46:02.117Z,18.00
2023-05-04T12:48:32.909Z,18.10
2023-05-04T12:51:01.826Z,18.10
2023-05-04T12:53:31.874Z,17.90
2023-05-04T12:56:01.016Z,17.70
2023-05-04T12:58:29.373Z,17.90
2023-05-04T13:00:57.775Z,18.10
2023-05-04T13:03:25.934Z,17.60
2023-05-04T13:05:56.185Z,16.70
2023-05-04T13:08:24.194Z,16.60
2023-05-04T13:10:52.507Z,16.90
2023-05-04T13:13:23.009Z,16.90
2023-05-04T13:15:51.670Z,16.70
2023-05-04T13:18:19.758Z,16.90
2023-05-04T13:20:47.917Z,16.90
2023-05-04T13:23:17.222Z,16.90
2023-05-04T13:25:45.196Z,16.30
2023-05-04T13:28:13.167Z,16.40
2023-05-04T13:30:41.089Z,16.30
2023-05-04T13:33:20.751Z,16.20
2023-05-04T13:35:56.851Z,16.70
2023-05-04T13:38:26.891Z,17.00
2023-05-04T13:40:54.910Z,16.70
2023-05-04T13:43:23.229Z,17.20
2023-05-04T13:45:51.422Z,17.20
2023-05-04T13:48:19.413Z,16.90
2023-05-04T13:50:47.348Z,16.40
2023-05-04T13:53:15.389Z,16.20
2023-05-04T13:55:44.850Z,16.60
2023-05-04T13:58:12.787Z,16.90
2023-05-04T14:00:40.843Z,17.00
2023-05-04T14:03:08.920Z,16.70
2023-05-04T14:05:36.905Z,16.80
2023-05-04T14:08:04.972Z,16.70
2023-05-04T14:10:33.444Z,17.00
2023-05-04T14:13:04.158Z,17.20
2023-05-04T14:15:32.310Z,16.80
2023-05-04T14:18:00.379Z,16.50
2023-05-04T14:20:28.425Z,16.70
2023-05-04T14:22:56.419Z,17.30
2023-05-04T14:25:24.436Z,17.70
2023-05-04T14:27:52.374Z,17.90
2023-05-04T14:30:21.922Z,18.00
2023-05-04T14:32:53.935Z,18.20
2023-05-04T14:35:22.258Z,17.80
2023-05-04T14:37:50.669Z,17.90
2023-05-04T14:40:18.729Z,17.60
2023-05-04T14:42:47.074Z,17.60
2023-05-04T14:45:16.204Z,17.80
2023-05-04T14:47:45.650Z,17.90
2023-05-04T14:50:14.138Z,17.80
2023-05-04T14:52:42.095Z,17.30
2023-05-04T14:55:10.790Z,16.80
2023-05-04T14:57:38.775Z,16.40
2023-05-04T15:00:09.563Z,16.50
2023-05-04T15:02:38.537Z,16.70
2023-05-04T15:05:12.375Z,16.80
2023-05-04T15:07:40.352Z,16.70
2023-05-04T15:10:10.347Z,16.70
2023-05-04T15:12:39.536Z,16.90
2023-05-04T15:15:08.632Z,16.80
2023-05-04T15:17:36.716Z,16.80
2023-05-04T15:20:05.348Z,16.90
2023-05-04T15:22:35.064Z,17.00
2023-05-04T15:25:03.489Z,17.30
2023-05-04T15:27:31.665Z,17.30
2023-05-04T15:29:59.661Z,17.40
2023-05-04T15:32:27.825Z,17.60
2023-05-04T15:35:04.359Z,17.40
2023-05-04T15:37:35.350Z,17.10
2023-05-04T15:40:04.553Z,16.90
2023-05-04T15:42:32.861Z,17.00
2023-05-04T15:45:01.189Z,17.00
2023-05-04T15:47:29.499Z,16.90
2023-05-04T15:49:57.467Z,16.70
2023-05-04T15:52:25.524Z,16.70
2023-05-04T15:54:54.847Z,16.50
2023-05-04T15:57:22.857Z,16.50
2023-05-04T15:59:50.905Z,16.60
2023-05-04T16:02:19.091Z,16.70
2023-05-04T16:04:47.135Z,16.80
2023-05-04T16:07:15.293Z,16.90
2023-05-04T16:09:43.216Z,16.80
2023-05-04T16:12:12.703Z,16.80
2023-05-04T16:14:40.627Z,16.60
2023-05-04T16:17:09.296Z,16.40
2023-05-04T16:19:37.925Z,16.30
2023-05-04T16:22:06.526Z,16.20
2023-05-04T16:24:36.024Z,16.10
2023-05-04T16:27:04.370Z,16.20
2023-05-04T16:29:33.716Z,16.30
2023-05-04T16:32:02.976Z,16.30
2023-05-04T16:34:31.013Z,16.10
2023-05-04T16:36:58.945Z,16.00
2023-05-04T16:39:31.477Z,16.00
2023-05-04T16:41:59.880Z,16.00
2023-05-04T16:44:27.878Z,16.00
2023-05-04T16:46:57.147Z,15.90
2023-05-04T16:49:25.221Z,15.80
2023-05-04T16:51:55.262Z,15.80
2023-05-04T16:54:24.122Z,15.80
2023-05-04T16:56:52.284Z,15.80
2023-05-04T16:59:20.434Z,15.90
2023-05-04T17:01:48.868Z,15.90
2023-05-04T17:04:18.334Z,15.90
2023-05-04T17:06:46.629Z,15.80
2023-05-04T17:09:14.905Z,15.80
2023-05-04T17:11:43.076Z,15.80
2023-05-04T17:14:11.020Z,15.70
2023-05-04T17:16:39.389Z,15.70
2023-05-04T17:19:09.538Z,15.60
2023-05-04T17:21:40.822Z,15.60
2023-05-04T17:24:09.077Z,15.40
2023-05-04T17:26:37.444Z,15.50
2023-05-04T17:29:05.723Z,15.40
2023-05-04T17:31:33.755Z,15.40
2023-05-04T17:34:01.878Z,15.30
2023-05-04T17:36:29.887Z,15.20
2023-05-04T17:38:59.510Z,15.10
2023-05-04T17:41:27.512Z,15.00
2023-05-04T17:43:55.994Z,14.90
2023-05-04T17:46:25.071Z,14.70
2023-05-04T17:48:54.466Z,14.50
2023-05-04T17:51:23.761Z,14.30
2023-05-04T17:53:52.067Z,14.20
2023-05-04T17:56:22.007Z,14.10
2023-05-04T17:58:49.992Z,13.80
2023-05-04T18:01:18.222Z,13.60
2023-05-04T18:03:46.979Z,13.40
2023-05-04T18:06:15.157Z,13.30
2023-05-04T18:08:43.229Z,13.20
2023-05-04T18:11:11.327Z,13.10
2023-05-04T18:13:40.779Z,12.90
2023-05-04T18:16:09.314Z,12.70
2023-05-04T18:18:37.765Z,12.50
2023-05-04T18:21:06.189Z,12.30
2023-05-04T18:23:34.249Z,12.10
2023-05-04T18:26:02.227Z,12.00
2023-05-04T18:28:30.436Z,11.90
2023-05-04T18:31:00.041Z,11.80
2023-05-04T18:33:28.119Z,11.70
2023-05-04T18:35:56.085Z,11.60
2023-05-04T18:38:26.368Z,11.50
2023-05-04T18:40:54.634Z,11.40
2023-05-04T18:43:22.716Z,11.40
2023-05-04T18:45:50.826Z,11.40
2023-05-04T18:48:21.097Z,11.50
2023-05-04T18:50:53.985Z,11.50
2023-05-04T18:53:22.193Z,11.40
2023-05-04T18:56:03.174Z,11.40
2023-05-04T18:58:31.328Z,11.40
2023-05-04T19:00:59.612Z,11.30
2023-05-04T19:03:29.179Z,11.20
2023-05-04T19:05:57.358Z,11.20
2023-05-04T19:08:25.334Z,11.20
2023-05-04T19:10:53.348Z,10.90
2023-05-04T19:13:21.832Z,10.60
2023-05-04T19:15:49.806Z,10.60
2023-05-04T19:18:18.270Z,10.30
2023-05-04T19:20:48.409Z,10.20
2023-05-04T19:23:16.546Z,10.30
2023-05-04T19:25:45.225Z,10.40
2023-05-04T19:28:13.287Z,10.00
2023-05-04T19:30:42.137Z,9.50
2023-05-04T19:33:10.343Z,9.40
2023-05-04T19:35:38.399Z,9.30
2023-05-04T19:38:07.755Z,9.30
2023-05-04T19:40:36.173Z,9.40
2023-05-04T19:43:04.487Z,9.40
2023-05-04T19:45:32.785Z,9.40
2023-05-04T19:48:00.830Z,9.30
2023-05-04T19:50:29.350Z,9.30
2023-05-04T19:52:57.350Z,9.40
2023-05-04T19:55:27.954Z,9.40
2023-05-04T19:57:56.055Z,9.50
2023-05-04T20:00:24.117Z,9.70
2023-05-04T20:02:52.208Z,9.70
2023-05-04T20:05:20.533Z,9.50
2023-05-04T20:07:49.855Z,9.40
2023-05-04T20:10:17.972Z,9.30
2023-05-04T20:12:47.725Z,9.10
2023-05-04T20:15:15.979Z,9.10
2023-05-04T20:17:43.972Z,9.10
2023-05-04T20:20:18.961Z,9.10
2023-05-04T20:22:47.920Z,9.00
2023-05-04T20:25:16.041Z,8.90
2023-05-04T20:27:45.180Z,8.50
2023-05-04T20:30:14.850Z,8.60
2023-05-04T20:32:43.982Z,8.60
2023-05-04T20:35:12.154Z,8.70
2023-05-04T20:37:40.100Z,8.70
2023-05-04T20:40:09.660Z,8.70
2023-05-04T20:42:37.753Z,8.60
2023-05-04T20:45:07.108Z,8.60
2023-05-04T20:47:36.797Z,8.60
2023-05-04T20:50:05.173Z,8.60
2023-05-04T20:52:33.430Z,8.50
2023-05-04T20:55:01.374Z,8.20
2023-05-04T20:57:29.506Z,7.80
2023-05-04T20:59:57.803Z,7.70
2023-05-04T21:02:26.055Z,7.90
2023-05-04T21:04:55.412Z,8.00
2023-05-04T21:07:23.390Z,8.00
2023-05-04T21:09:51.380Z,8.10
2023-05-04T21:12:19.366Z,8.10
2023-05-04T21:14:47.311Z,8.00
2023-05-04T21:17:15.847Z,8.00
2023-05-04T21:19:43.856Z,8.00
2023-05-04T21:22:17.353Z,7.80
2023-05-04T21:24:47.080Z,7.50
2023-05-04T21:27:15.013Z,7.40
2023-05-04T21:29:42.964Z,7.40
2023-05-04T21:32:10.947Z,7.30
2023-05-04T21:34:38.899Z,7.30
2023-05-04T21:37:06.963Z,7.30
2023-05-04T21:39:36.331Z,7.30
2023-05-04T21:42:04.691Z,7.40
2023-05-04T21:44:32.618Z,7.40
2023-05-04T21:47:01.051Z,7.30
2023-05-04T21:49:29.055Z,6.90
2023-05-04T21:51:57.138Z,6.90
2023-05-04T21:54:25.713Z,6.90
2023-05-04T21:56:55.075Z,6.60
2023-05-04T21:59:23.074Z,6.40
2023-05-04T22:01:51.147Z,6.10
2023-05-04T22:04:19.148Z,6.10
2023-05-04T22:06:48.152Z,6.20
2023-05-04T22:09:16.575Z,6.30
2023-05-04T22:11:44.553Z,6.40
2023-05-04T22:14:13.986Z,6.40
2023-05-04T22:16:42.120Z,6.40
2023-05-04T22:19:10.215Z,6.10
2023-05-04T22:21:39.797Z,6.20
2023-05-04T22:24:08.282Z,6.20
2023-05-04T22:26:36.464Z,5.90
2023-05-04T22:29:04.614Z,5.90
2023-05-04T22:31:33.916Z,5.90
2023-05-04T22:34:02.011Z,5.90
2023-05-04T22:36:30.125Z,5.90
2023-05-04T22:38:58.103Z,5.90
2023-05-04T22:41:26.247Z,5.70
2023-05-04T22:43:54.216Z,5.70
2023-05-04T22:46:22.309Z,5.80
2023-05-04T22:48:51.646Z,5.70
2023-05-04T22:51:19.657Z,5.30
2023-05-04T22:53:47.656Z,5.10
2023-05-04T22:56:15.918Z,5.20
2023-05-04T22:58:45.869Z,5.40
2023-05-04T23:01:13.964Z,5.40
2023-05-04T23:03:42.143Z,5.50
2023-05-04T23:06:11.748Z,5.40
2023-05-04T23:08:39.827Z,5.30
2023-05-04T23:11:08.061Z,5.30
2023-05-04T23:13:36.032Z,5.20
2023-05-04T23:16:04.180Z,5.30
2023-05-04T23:18:33.320Z,5.20
2023-05-04T23:21:01.385Z,5.10
2023-05-04T23:23:31.129Z,5.00
2023-05-04T23:25:59.052Z,5.00
2023-05-04T23:28:27.048Z,4.90
2023-05-04T23:30:55.698Z,4.90
2023-05-04T23:33:23.770Z,4.80
2023-05-04T23:35:55.588Z,4.60
2023-05-04T23:38:23.856Z,4.40
2023-05-04T23:40:53.809Z,4.00
2023-05-04T23:43:23.377Z,4.00
2023-05-04T23:45:51.520Z,4.00
2023-05-04T23:48:19.633Z,4.10
2023-05-04T23:50:53.896Z,4.30
2023-05-04T23:53:21.898Z,4.10
2023-05-04T23:56:00.712Z,4.10
2023-05-04T23:58:31.880Z,4.20
